Weather observations for the past three days for
King Cove
Metric (Imperial)
Date Time (akdt) Wind (kph) Vis. (km) Weather Sky Cond. Temperature (ºC) Relative Humidity Wind Chill (°C) Heat Index (°C) Pressure Precipitation (cm)
Air Dwpt 6 hour altimeter (cm) sea level (mb) 1 hr 3 hr 6 hr
Max. Min.
10 05:56 W 28 G 43 16.09 Overcast BKN022 OVC027 -1.7 -5.6 75% -8 75.23 1003.3
10 04:56 W 28 16.09 Overcast OVC023 -1.7 -5.6 75% -8 75.23 1003.2
10 03:56 W 35 G 48 12.87 Mostly Cloudy and Breezy FEW013 BKN023 -1.7 -5 0 -1.7 78% -9 75.23 1003.0
10 02:56 W 30 8.05 Light Snow BKN024 BKN030 -1.1 -4.4 79% -7 75.21 1002.7
10 01:56 W 37 G 44 16.09 Overcast and Breezy OVC020 -1.1 -4.4 79% -8 75.18 1002.5
10 00:56 W 35 G 50 16.09 Mostly Cloudy and Breezy BKN022 BKN026 BKN031 -0.6 -4.4 76% -7 75.18 1002.5
09 23:56 W 31 G 44 16.09 Overcast OVC020 -1.1 -4.4 79% -8 75.18 1002.5
09 22:56 W 24 G 43 16.09 Mostly Cloudy BKN022 -0.6 -4.4 76% -6 75.16 1002.2
09 21:56 W 35 G 54 16.09 A Few Clouds and Breezy FEW019 0 -3.9 6.1 -0.6 75% -7 75.11 1001.4
09 20:56 NW 39 G 56 16.09 Fair and Breezy CLR 0.6 -4.4 70% -6 75.06 1000.7
09 19:56 W 33 G 54 16.09 A Few Clouds and Breezy FEW016 1.1 -2.8 76% -5 75.06 1000.8
09 18:56 W 30 G 37 16.09 Overcast OVC014 1.7 -1.7 78% -4 75.08 1001.0
09 17:56 W 24 G 30 16.09 Overcast OVC016 2.8 -1.1 76% -2 75.06 1000.7
09 16:56 NW 35 G 48 16.09 Mostly Cloudy and Breezy BKN046 3.9 -1.1 70% -1 75.03 1000.3
09 15:56 Vrbl 9 G 28 16.09 A Few Clouds FEW046 6.1 -2.8 6.1 1.7 53% 4 75.01 1000.0
09 14:56 N 24 G 33 16.09 Partly Cloudy SCT047 5 -2.8 57% 1 74.98 999.7
09 13:56 Calm 16.09 Fair CLR 5 -2.8 57% 74.98 999.7
09 12:56 SW 20 16.09 Fair CLR 5 -5 49% 1 75.01 1000.0
09 11:56 Vrbl 7 16.09 Fair CLR 3.9 -5 53% 2 75.01 1000.1
09 10:56 Vrbl 11 16.09 Fair CLR 3.3 -3.9 60% 1 75.01 1000.2
09 09:56 NW 22 G 33 16.09 Fair CLR 2.2 -3.9 2.2 -1.7 64% -2 75.01 1000.2
09 08:56 W 20 G 33 16.09 Light Rain FEW010 1.7 -3.3 70% -3 75.03 1000.4
09 07:56 W 26 G 39 16.09 Fair CLR 0 -3.9 75% -6 75.03 1000.5
09 06:56 W 24 G 48 16.09 Fair CLR -0.6 -3.9 79% -6 75.03 1000.4
09 05:56 Vrbl 6 16.09 Fair CLR -0.6 -5.6 69% 75.06 1000.8
09 04:56 SW 9 16.09 Fair CLR -0.6 -5 72% -3 75.11 1001.3
09 03:56 SW 15 16.09 Fair CLR -1.1 -5 0.6 -1.7 75% -5 75.11 1001.5
09 02:56 SW 22 G 35 16.09 Fair CLR -1.7 -4.4 82% -7 75.16 1002.2
09 01:56 SW 30 G 44 16.09 Fair CLR -1.1 -3.9 82% -7 75.18 1002.6
09 00:56 SW 26 G 37 16.09 Fair CLR -0.6 -2.8 85% -6 75.23 1003.1
08 23:56 W 22 G 39 16.09 Fair CLR -0.6 -2.2 89% -6 75.26 1003.5
08 22:56 W 28 G 35 16.09 Fair CLR -0.6 -1.7 92% -7 75.29 1003.8
08 21:56 SW 28 16.09 Fair CLR 0.6 -1.7 5.6 0.6 85% -5 75.29 1003.8
08 20:56 SW 17 16.09 Fair CLR 2.8 -1.1 76% -1 75.29 1003.9
08 19:56 SW 17 16.09 Fair CLR 3.3 -1.1 73% -0 75.31 1004.1
08 18:56 W 17 16.09 Fair CLR 4.4 -1.1 68% 1 75.34 1004.4
08 17:56 W 20 G 28 16.09 Fair CLR 5 -0.6 67% 1 75.36 1004.7
08 16:56 W 22 G 33 16.09 Fair CLR 5 -0.6 67% 1 75.39 1005.1
08 15:56 W 15 G 30 16.09 A Few Clouds FEW033 5.6 -0.6 5.6 -0.6 65% 3 75.41 1005.5
08 14:56 SW 20 16.09 Fair CLR 4.4 -1.1 68% 1 75.46 1006.1
08 12:56 W 17 16.09 A Few Clouds FEW024 2.8 -2.2 70% -1 75.54 1007.1
08 11:56 W 19 16.09 Partly Cloudy SCT017 1.7 -2.2 76% -2 75.57 1007.5
08 10:56 Vrbl 7 16.09 Mostly Cloudy BKN013 0.6 -2.8 78% -1 75.62 1008.2
08 09:56 SW 9 16.09 Overcast OVC011 -0.6 -2.2 -0.6 -2.2 89% -3 75.64 1008.6
08 08:56 W 7 16.09 Overcast OVC011 -1.1 -2.2 92% -3 75.67 1009.0
08 07:56 W 11 16.09 Overcast OVC009 -1.7 -2.2 96% -5 75.67 1009.0
08 06:56 SW 17 16.09 Overcast OVC007 -2.2 -2.8 96% -7 75.69 1009.4
08 05:56 W 17 16.09 Overcast OVC007 -1.7 -2.2 96% -6 75.72 1009.5
08 04:56 SW 17 12.87 Overcast OVC003 -1.7 -2.2 96% -6 75.74 1009.9
08 03:56 W 17 9.66 Fog/Mist OVC003 -1.7 -2.2 0.6 -1.7 96% -6 75.77 1010.3
08 02:56 W 17 2.41 Fog/Mist OVC003 -1.1 -2.2 92% -6 75.82 1011.0
08 01:56 W 19 14.48 Overcast OVC003 -1.1 -1.7 96% -6 75.84 1011.4
08 00:56 W 17 16.09 Overcast OVC005 -0.6 -1.1 96% -5 75.87 1011.5
07 23:56 W 15 16.09 Overcast OVC005 0 -1.1 92% -4 75.9 1011.8
07 22:56 W 19 16.09 Overcast BKN007 OVC019 0.6 -0.6 92% -4 75.9 1012.1
07 21:56 W 20 16.09 Fair CLR 0.6 -0.6 6.1 0.6 92% -4 75.9 1011.8
07 20:56 W 20 16.09 Mostly Cloudy BKN029 3.3 0 79% -1 75.9 1011.8
07 19:56 NW 17 16.09 Partly Cloudy SCT031 5.6 0.6 71% 3 75.9 1011.8
07 18:56 E 11 16.09 Partly Cloudy SCT027 5 -0.6 67% 3 75.9 1012.1
07 16:56 E 15 16.09 Mostly Cloudy BKN033 5 -1.7 62% 2 75.97 1013.1
07 14:56 E 17 16.09 Fair CLR 5 -1.1 65% 2 76.05 1014.1
07 13:56 E 15 16.09 Fair CLR 5 -1.1 65% 2 76.1 1014.6
07 12:56 E 17 16.09 Fair CLR 3.9 -1.1 70% 0 76.12 1014.9
07 11:56 SE 15 16.09 Fair CLR 3.3 -1.7 70% 0 76.15 1015.2
07 10:56 NE 9 16.09 Mostly Cloudy BKN020 2.2 -2.8 70% -0 76.17 1015.6
07 09:56 Calm 16.09 Mostly Cloudy BKN020 1.7 -2.8 1.7 -2.8 72% 76.2 1016.1
07 08:56 NE 11 16.09 Mostly Cloudy BKN018 1.1 -2.2 79% -2 76.23 1016.3
07 07:56 Calm 16.09 Fair CLR -2.2 -3.3 92% 76.23 1016.3
07 06:56 Calm 16.09 Partly Cloudy SCT018 -2.2 -3.3 92% 76.25 1016.7
Date Time (akdt) Wind (kph) Vis. (km) Weather Sky Cond. Air Dwpt Max. Min. Relative Humidity Wind Chill (°C) Heat Index (°C) altimeter (cm) sea level (mb) 1 hr 3 hr 6 hr
6 hour
Temperature (ºC) Pressure Precipitation (cm)